Terminal Aerodrome Forecast
Issued by NWS

Home | Current Version | Previous Version | Text Only | Print | Product List | Glossary On
Versions: 1 2 3 4 5 6 7 8 9 10 11 12 13 14 15 16
384
FTUS42 TJSJ 261720
TAFJBQ
TAF
TJBQ 261720Z 2618/2718 23010G15KT P6SM VCTS SCT025CB BKN050
     FM261930 23010KT P6SM VCTS SCT030 SCT040CB
     FM262300 VRB02KT P6SM FEW025 FEW060
     FM271400 29004KT P6SM SCT030=

USA.gov is the U.S. government's official web portal to all federal, state and local government web resources and services.